createdAt,value
2019-02-11T00:03:27.110Z,98751.65
2019-02-11T00:07:33.949Z,98762.58
2019-02-11T00:11:40.837Z,98780.75
2019-02-11T00:15:47.686Z,98780.45
2019-02-11T00:19:54.582Z,98779.50
2019-02-11T00:24:01.602Z,98805.03
2019-02-11T00:28:08.388Z,98819.13
2019-02-11T00:32:15.281Z,98830.48
2019-02-11T00:36:22.368Z,98854.05
2019-02-11T00:40:29.270Z,98845.20
2019-02-11T00:44:36.645Z,98860.38
2019-02-11T00:48:43.548Z,98871.01
2019-02-11T00:52:50.398Z,98864.52
2019-02-11T00:56:57.261Z,98874.25
2019-02-11T01:01:04.163Z,98887.87
2019-02-11T01:05:11.321Z,98901.27
2019-02-11T01:09:18.150Z,98905.27
2019-02-11T01:13:27.868Z,98905.67
2019-02-11T01:17:33.521Z,98918.80
2019-02-11T01:21:40.407Z,98940.41
2019-02-11T01:25:47.217Z,98947.78
2019-02-11T01:29:54.222Z,98963.77
2019-02-11T01:34:01.128Z,98978.52
2019-02-11T01:38:07.985Z,98979.58
2019-02-11T01:42:14.848Z,99002.33
2019-02-11T01:46:24.527Z,99018.89
2019-02-11T01:50:31.643Z,99023.13
2019-02-11T01:54:38.687Z,99040.37
2019-02-11T01:58:45.496Z,99044.37
2019-02-11T02:02:52.351Z,99046.07
2019-02-11T02:06:59.249Z,99061.25
2019-02-11T02:11:06.161Z,99071.56
2019-02-11T02:15:13.957Z,99072.97
2019-02-11T02:19:20.825Z,99081.49
2019-02-11T02:23:27.737Z,99089.48
2019-02-11T02:27:34.587Z,99102.41
2019-02-11T02:31:41.391Z,99101.91
2019-02-11T02:35:48.288Z,99106.97
2019-02-11T02:39:55.222Z,99116.34
2019-02-11T02:44:02.103Z,99128.77
2019-02-11T02:48:08.977Z,99129.23
2019-02-11T02:52:15.879Z,99126.61
2019-02-11T02:56:22.754Z,99143.50
2019-02-11T03:00:29.574Z,99154.92
2019-02-11T03:04:36.399Z,99164.00
2019-02-11T03:08:43.170Z,99163.03
2019-02-11T03:12:50.014Z,99169.81
2019-02-11T03:16:57.058Z,99182.73
2019-02-11T03:21:03.905Z,99186.98
2019-02-11T03:25:11.754Z,99203.57
2019-02-11T03:29:18.610Z,99213.16
2019-02-11T03:33:25.415Z,99225.97
2019-02-11T03:37:33.066Z,99240.86
2019-02-11T03:41:40.004Z,99247.26
2019-02-11T03:45:46.821Z,99252.38
2019-02-11T03:49:53.724Z,99272.39
2019-02-11T03:54:00.570Z,99274.20
2019-02-11T03:58:07.408Z,99291.43
2019-02-11T04:02:14.467Z,99291.53
2019-02-11T04:06:21.319Z,99299.08
2019-02-11T04:10:28.287Z,99311.98
2019-02-11T04:14:35.286Z,99323.27
2019-02-11T04:18:42.076Z,99342.77
2019-02-11T04:22:48.916Z,99344.40
2019-02-11T04:26:55.834Z,99356.77
2019-02-11T04:31:02.660Z,99366.52
2019-02-11T04:35:09.616Z,99374.05
2019-02-11T04:39:16.539Z,99385.17
2019-02-11T04:43:23.358Z,99395.33
2019-02-11T04:47:30.126Z,99401.41
2019-02-11T04:51:36.985Z,99406.78
2019-02-11T04:55:47.039Z,99418.05
2019-02-11T04:59:54.921Z,99414.38
2019-02-11T05:04:01.828Z,99417.00
2019-02-11T05:08:08.636Z,99426.42
2019-02-11T05:12:15.476Z,99427.09
2019-02-11T05:16:22.349Z,99439.99
2019-02-11T05:20:29.176Z,99434.77
2019-02-11T05:24:35.996Z,99447.44
2019-02-11T05:28:50.062Z,99447.44
2019-02-11T05:32:56.901Z,99466.03
2019-02-11T05:37:03.711Z,99470.77
2019-02-11T05:41:10.476Z,99478.31
2019-02-11T05:45:17.402Z,99485.50
2019-02-11T05:49:24.223Z,99496.60
2019-02-11T05:53:31.039Z,99502.47
2019-02-11T05:57:37.924Z,99506.86
2019-02-11T06:01:44.817Z,99507.63
2019-02-11T06:05:51.979Z,99511.41
2019-02-11T06:09:58.830Z,99527.16
2019-02-11T06:14:05.802Z,99531.90
2019-02-11T06:18:12.600Z,99552.48
2019-02-11T06:22:20.429Z,99559.28
2019-02-11T06:26:27.242Z,99573.20
2019-02-11T06:30:34.131Z,99582.25
2019-02-11T06:34:40.918Z,99593.97
2019-02-11T06:38:47.794Z,99606.53
2019-02-11T06:42:54.663Z,99612.63
2019-02-11T06:47:01.509Z,99618.91
2019-02-11T06:51:08.509Z,99635.91
2019-02-11T06:55:16.463Z,99637.92
2019-02-11T06:59:23.302Z,99648.89
2019-02-11T07:03:30.201Z,99662.15
2019-02-11T07:07:36.975Z,99661.23
2019-02-11T07:11:43.783Z,99682.16
2019-02-11T07:16:00.096Z,99688.72
2019-02-11T07:20:08.311Z,99689.34
2019-02-11T07:24:15.203Z,99702.15
2019-02-11T07:28:23.448Z,99704.34
2019-02-11T07:32:30.545Z,99720.76
2019-02-11T07:36:37.510Z,99734.17
2019-02-11T07:40:44.411Z,99746.67
2019-02-11T07:44:54.793Z,99760.77
2019-02-11T07:49:01.816Z,99768.02
2019-02-11T07:53:08.749Z,99778.55
2019-02-11T07:57:15.642Z,99788.33
2019-02-11T08:01:22.590Z,99788.02
2019-02-11T08:05:29.580Z,99793.57
2019-02-11T08:09:36.546Z,99808.14
2019-02-11T08:13:43.399Z,99822.43
2019-02-11T08:17:50.356Z,99838.56
2019-02-11T08:21:57.203Z,99847.13
2019-02-11T08:26:04.107Z,99847.37
2019-02-11T08:30:11.600Z,99850.94
2019-02-11T08:34:18.626Z,99867.81
2019-02-11T08:38:25.693Z,99870.94
2019-02-11T08:42:32.805Z,99873.67
2019-02-11T08:46:39.643Z,99887.37
2019-02-11T08:50:46.533Z,99898.64
2019-02-11T08:54:53.467Z,99900.70
2019-02-11T08:59:00.447Z,99915.48
2019-02-11T09:03:07.411Z,99932.19
2019-02-11T09:07:14.347Z,99929.27
2019-02-11T09:11:21.241Z,99940.29
2019-02-11T09:15:28.161Z,99949.90
2019-02-11T09:19:35.255Z,99960.42
2019-02-11T09:23:42.118Z,99973.46
2019-02-11T09:27:48.976Z,99986.34
2019-02-11T09:31:55.865Z,99986.00
2019-02-11T09:36:03.408Z,99983.39
2019-02-11T09:40:12.648Z,99989.30
2019-02-11T09:44:19.557Z,99994.65
2019-02-11T09:48:26.382Z,100005.64
2019-02-11T09:52:33.298Z,100014.75
2019-02-11T09:56:40.714Z,100031.45
2019-02-11T10:00:47.614Z,100034.67
2019-02-11T10:04:54.659Z,100043.94
2019-02-11T10:09:01.518Z,100057.86
2019-02-11T10:13:10.095Z,100077.34
2019-02-11T10:17:18.945Z,100081.15
2019-02-11T10:21:25.839Z,100083.27
2019-02-11T10:25:32.986Z,100088.66
2019-02-11T10:29:40.181Z,100108.23
2019-02-11T10:33:47.352Z,100107.95
2019-02-11T10:37:54.575Z,100105.88
2019-02-11T10:42:01.631Z,100121.69
2019-02-11T10:46:08.848Z,100125.59
2019-02-11T10:50:16.654Z,100137.09
2019-02-11T10:54:24.099Z,100143.45
2019-02-11T10:58:31.063Z,100163.44
2019-02-11T11:02:37.949Z,100161.60
2019-02-11T11:06:45.026Z,100165.41
2019-02-11T11:10:52.057Z,100173.49
2019-02-11T11:14:59.112Z,100168.36
2019-02-11T11:19:06.530Z,100162.45
2019-02-11T11:23:15.097Z,100171.20
2019-02-11T11:27:23.545Z,100169.37
2019-02-11T11:31:30.428Z,100166.78
2019-02-11T11:35:37.507Z,100171.17
2019-02-11T11:39:44.647Z,100169.48
2019-02-11T11:43:51.652Z,100175.59
2019-02-11T11:47:58.708Z,100185.55
2019-02-11T11:52:06.768Z,100198.02
2019-02-11T11:56:13.643Z,100196.31
2019-02-11T12:00:24.303Z,100209.56
2019-02-11T12:04:32.198Z,100223.45
2019-02-11T12:08:39.186Z,100224.81
2019-02-11T12:12:46.168Z,100224.36
2019-02-11T12:16:57.695Z,100225.73
2019-02-11T12:21:03.292Z,100220.41
2019-02-11T12:25:12.451Z,100227.05
2019-02-11T12:29:22.262Z,100219.22
2019-02-11T12:33:29.159Z,100221.06
2019-02-11T12:37:36.802Z,100220.64
2019-02-11T12:41:43.844Z,100216.18
2019-02-11T12:45:50.769Z,100229.73
2019-02-11T12:49:58.620Z,100233.28
2019-02-11T12:54:05.500Z,100234.47
2019-02-11T12:58:12.354Z,100249.23
2019-02-11T13:02:19.269Z,100268.64
2019-02-11T13:06:26.285Z,100276.32
2019-02-11T13:10:33.264Z,100278.65
2019-02-11T13:14:40.327Z,100288.17
2019-02-11T13:18:47.230Z,100274.54
2019-02-11T13:22:54.080Z,100288.88
2019-02-11T13:27:01.131Z,100299.11
2019-02-11T13:31:08.043Z,100308.00
2019-02-11T13:35:15.492Z,100313.42
2019-02-11T13:39:22.513Z,100315.22
2019-02-11T13:43:29.341Z,100313.21
2019-02-11T13:47:51.901Z,100321.67
2019-02-11T13:51:45.849Z,100314.06
2019-02-11T13:55:52.966Z,100326.09
2019-02-11T13:59:59.838Z,100342.84
2019-02-11T14:04:06.889Z,100350.06
2019-02-11T14:08:13.768Z,100354.84
2019-02-11T14:12:22.229Z,100370.32
2019-02-11T14:16:29.261Z,100373.41
2019-02-11T14:20:36.233Z,100378.26
2019-02-11T14:24:44.423Z,100389.61
2019-02-11T14:28:51.245Z,100397.82
2019-02-11T14:32:58.230Z,100410.63
2019-02-11T14:37:05.262Z,100420.64
2019-02-11T14:41:15.054Z,100426.41
2019-02-11T14:45:23.019Z,100421.83
2019-02-11T14:49:30.288Z,100427.16
2019-02-11T14:53:37.453Z,100430.86
2019-02-11T14:57:44.461Z,100445.94
2019-02-11T15:01:51.370Z,100458.19
2019-02-11T15:05:58.584Z,100468.81
2019-02-11T15:10:05.880Z,100458.44
2019-02-11T15:14:12.873Z,100475.08
2019-02-11T15:18:19.874Z,100479.18
2019-02-11T15:22:28.090Z,100492.41
2019-02-11T15:26:38.335Z,100507.11
2019-02-11T15:30:45.213Z,100524.06
2019-02-11T15:34:52.178Z,100528.19
2019-02-11T15:38:59.661Z,100545.48
2019-02-11T15:43:06.550Z,100550.27
2019-02-11T15:47:13.495Z,100550.62
2019-02-11T15:51:22.477Z,100563.44
2019-02-11T15:55:29.462Z,100564.59
2019-02-11T15:59:36.499Z,100581.69
2019-02-11T16:03:44.136Z,100580.54
2019-02-11T16:07:52.396Z,100587.43
2019-02-11T16:12:00.959Z,100600.13
2019-02-11T16:16:08.857Z,100607.52
2019-02-11T16:20:16.448Z,100621.64
2019-02-11T16:24:25.130Z,100633.08
2019-02-11T16:28:32.489Z,100635.07
2019-02-11T16:32:39.861Z,100644.09
2019-02-11T16:36:47.127Z,100652.16
2019-02-11T16:40:54.340Z,100652.48
2019-02-11T16:45:02.563Z,100653.83
2019-02-11T16:49:11.526Z,100656.41
2019-02-11T16:53:18.634Z,100671.68
2019-02-11T16:57:25.487Z,100681.22
2019-02-11T17:01:33.733Z,100683.41
2019-02-11T17:05:40.910Z,100708.98
2019-02-11T17:09:48.913Z,100721.52
2019-02-11T17:13:56.235Z,100720.78
2019-02-11T17:18:05.113Z,100734.51
2019-02-11T17:22:12.282Z,100750.55
2019-02-11T17:26:21.203Z,100770.98
2019-02-11T17:30:30.623Z,100792.53
2019-02-11T17:34:38.210Z,100794.75
2019-02-11T17:38:45.631Z,100808.08
2019-02-11T17:42:52.605Z,100831.91
2019-02-11T17:46:59.483Z,100833.80
2019-02-11T17:51:08.087Z,100840.13
2019-02-11T17:55:20.618Z,100861.39
2019-02-11T17:59:29.318Z,100859.27
2019-02-11T18:03:36.504Z,100865.85
2019-02-11T18:07:43.330Z,100879.11
2019-02-11T18:11:50.259Z,100902.35
2019-02-11T18:15:57.268Z,100893.70
2019-02-11T18:20:04.359Z,100917.38
2019-02-11T18:24:11.390Z,100929.38
2019-02-11T18:28:18.318Z,100933.62
2019-02-11T18:32:25.283Z,100927.69
2019-02-11T18:36:35.133Z,100940.84
2019-02-11T18:40:42.029Z,100947.78
2019-02-11T18:44:48.924Z,100957.87
2019-02-11T18:48:55.869Z,100961.61
2019-02-11T18:53:02.751Z,100971.73
2019-02-11T18:57:09.606Z,100982.19
2019-02-11T19:01:16.450Z,100992.28
2019-02-11T19:05:23.764Z,100997.48
2019-02-11T19:09:30.795Z,101005.48
2019-02-11T19:13:37.693Z,101017.80
2019-02-11T19:17:44.722Z,101012.81
2019-02-11T19:21:54.144Z,101023.17
2019-02-11T19:26:01.188Z,101027.27
2019-02-11T19:30:12.642Z,101030.47
2019-02-11T19:34:22.514Z,101030.25
2019-02-11T19:38:31.250Z,101029.50
2019-02-11T19:42:38.190Z,101028.42
2019-02-11T19:46:45.069Z,101029.88
2019-02-11T19:50:52.014Z,101028.50
2019-02-11T19:54:58.842Z,101025.80
2019-02-11T19:59:05.981Z,101036.66
2019-02-11T20:03:12.998Z,101047.95
2019-02-11T20:07:19.921Z,101060.52
2019-02-11T20:11:26.879Z,101068.39
2019-02-11T20:15:33.922Z,101076.91
2019-02-11T20:19:40.789Z,101076.68
2019-02-11T20:23:47.609Z,101081.11
2019-02-11T20:27:54.428Z,101075.44
2019-02-11T20:32:01.353Z,101065.16
2019-02-11T20:36:08.285Z,101068.34
2019-02-11T20:40:19.764Z,101079.33
2019-02-11T20:44:27.719Z,101082.77
2019-02-11T20:48:34.515Z,101080.14
2019-02-11T20:52:41.372Z,101086.56
2019-02-11T20:56:48.243Z,101091.95
2019-02-11T21:00:55.098Z,101094.41
2019-02-11T21:05:02.009Z,101105.69
2019-02-11T21:09:10.330Z,101102.78
2019-02-11T21:13:17.444Z,101091.57
2019-02-11T21:17:24.441Z,101099.75
2019-02-11T21:21:31.377Z,101097.97
2019-02-11T21:25:38.301Z,101110.28
2019-02-11T21:29:45.806Z,101129.63
2019-02-11T21:33:56.828Z,101131.14
2019-02-11T21:38:04.060Z,101143.59
2019-02-11T21:42:10.965Z,101162.10
2019-02-11T21:46:17.865Z,101179.69
2019-02-11T21:50:26.669Z,101207.63
2019-02-11T21:54:34.354Z,101210.09
2019-02-11T21:58:42.656Z,101209.08
2019-02-11T22:02:49.610Z,101217.57
2019-02-11T22:06:56.543Z,101227.97
2019-02-11T22:11:03.437Z,101240.02
2019-02-11T22:15:11.908Z,101235.05
2019-02-11T22:19:18.698Z,101240.19
2019-02-11T22:23:25.503Z,101233.66
2019-02-11T22:27:32.247Z,101249.53
2019-02-11T22:31:39.155Z,101240.39
2019-02-11T22:35:46.198Z,101249.33
2019-02-11T22:39:53.084Z,101241.11
2019-02-11T22:44:00.003Z,101237.53
2019-02-11T22:48:07.015Z,101235.97
2019-02-11T22:52:13.914Z,101240.98
2019-02-11T22:56:20.886Z,101255.50
2019-02-11T23:00:44.228Z,101253.71
2019-02-11T23:04:51.604Z,101276.25
2019-02-11T23:08:58.477Z,101285.45
2019-02-11T23:13:05.406Z,101292.06
2019-02-11T23:17:12.267Z,101318.97
2019-02-11T23:21:19.151Z,101327.09
2019-02-11T23:25:26.921Z,101327.84
2019-02-11T23:29:34.387Z,101326.77
2019-02-11T23:33:41.208Z,101346.56
2019-02-11T23:37:48.023Z,101351.83
2019-02-11T23:41:54.845Z,101355.05
2019-02-11T23:46:01.753Z,101358.89
2019-02-11T23:50:08.682Z,101357.59
2019-02-11T23:54:15.507Z,101359.25
2019-02-11T23:58:22.763Z,101354.23
